Time;durP1;ratioP1;P1;durP2;ratioP2;P2;SDS_P1;SDS_P2;PMS_P1;PMS_P2;Temp;Humidity;BMP_temperature;BMP_pressure;BME280_temperature;BME280_humidity;BME280_pressure;Samples;Min_cycle;Max_cycle;Signal;HPM_P1;HPM_P2
2023/09/29 00:02:17;;;;;;;29.60;6.47;;;;;;;17.71;100.00;100302.44;5009682;28;20033;-80
2023/09/29 00:05:01;;;;;;;34.67;6.70;;;;;;;17.70;100.00;100305.59;4998041;28;20099;-80
2023/09/29 00:07:45;;;;;;;30.02;6.07;;;;;;;17.68;100.00;100307.94;5023616;28;20040;-80
2023/09/29 00:10:30;;;;;;;37.58;6.75;;;;;;;17.68;100.00;100308.75;5009503;28;20072;-80
2023/09/29 00:13:14;;;;;;;38.20;7.07;;;;;;;17.62;100.00;100305.34;5037541;28;20094;-80
2023/09/29 00:15:58;;;;;;;29.83;6.75;;;;;;;17.62;100.00;100308.16;5028862;28;20116;-79
2023/09/29 00:18:42;;;;;;;32.95;7.13;;;;;;;17.62;100.00;100315.75;5015245;28;20106;-80
2023/09/29 00:21:26;;;;;;;34.42;7.80;;;;;;;17.60;100.00;100302.06;5023875;28;20485;-80
2023/09/29 00:24:10;;;;;;;42.67;7.47;;;;;;;17.58;100.00;100304.41;5027898;28;20148;-80
2023/09/29 00:26:54;;;;;;;38.30;7.90;;;;;;;17.58;100.00;100300.78;5029389;28;20398;-80
2023/09/29 00:29:39;;;;;;;35.35;7.30;;;;;;;17.55;100.00;100296.69;5029153;28;20043;-79
2023/09/29 00:32:23;;;;;;;37.83;8.10;;;;;;;17.53;100.00;100284.16;5016401;28;20392;-80
2023/09/29 00:35:18;;;;;;;40.50;9.32;;;;;;;17.50;100.00;100290.47;5057625;28;20191;-79
2023/09/29 00:38:02;;;;;;;41.38;8.55;;;;;;;17.50;100.00;100301.69;5033739;28;20542;-83
2023/09/29 00:40:46;;;;;;;38.83;8.43;;;;;;;17.47;100.00;100297.59;5043868;28;20393;-80
2023/09/29 00:43:32;;;;;;;45.53;9.90;;;;;;;17.45;100.00;100299.09;5042759;28;20051;-79
2023/09/29 00:46:16;;;;;;;42.15;9.25;;;;;;;17.43;100.00;100291.81;5044131;28;20044;-80
2023/09/29 00:49:01;;;;;;;43.67;9.48;;;;;;;17.42;100.00;100287.38;5037662;28;20080;-80
2023/09/29 00:51:45;;;;;;;43.45;9.52;;;;;;;17.39;100.00;100290.06;5027221;28;20408;-79
2023/09/29 00:54:30;;;;;;;37.63;8.73;;;;;;;17.39;100.00;100301.31;5043829;28;20052;-79
2023/09/29 00:57:14;;;;;;;41.47;8.60;;;;;;;17.35;100.00;100311.56;5029070;28;20079;-79
2023/09/29 00:59:58;;;;;;;40.10;9.55;;;;;;;17.36;100.00;100316.03;5030371;28;20097;-79
2023/09/29 01:02:43;;;;;;;44.72;9.43;;;;;;;17.32;100.00;100323.47;5039097;28;20094;-80
2023/09/29 01:05:29;;;;;;;38.10;8.70;;;;;;;17.30;100.00;100315.41;5042308;28;20099;-79
2023/09/29 01:08:19;;;;;;;52.25;9.48;;;;;;;17.30;100.00;100320.19;5042714;28;20071;-80
2023/09/29 01:11:07;;;;;;;40.90;9.65;;;;;;;17.28;100.00;100325.34;5027421;28;20130;-80
2023/09/29 01:13:51;;;;;;;39.38;9.13;;;;;;;17.27;100.00;100332.91;5002657;28;20049;-80
2023/09/29 01:16:36;;;;;;;44.78;10.23;;;;;;;17.25;100.00;100328.84;4995333;28;20508;-79
2023/09/29 01:19:20;;;;;;;38.65;8.52;;;;;;;17.23;100.00;100336.78;5007193;28;20039;-79
2023/09/29 01:22:06;;;;;;;40.50;9.32;;;;;;;17.20;100.00;100344.72;5022070;28;20179;-80
2023/09/29 01:24:51;;;;;;;47.10;9.73;;;;;;;17.17;100.00;100344.59;5008415;28;20095;-80
2023/09/29 01:27:35;;;;;;;40.75;8.90;;;;;;;17.17;100.00;100353.00;5008154;28;20377;-80
2023/09/29 01:30:19;;;;;;;44.08;9.18;;;;;;;17.15;100.00;100346.91;5037231;28;20072;-79
2023/09/29 01:33:03;;;;;;;43.08;8.85;;;;;;;17.13;100.00;100349.22;4995606;28;20048;-79
2023/09/29 01:35:49;;;;;;;47.55;8.85;;;;;;;17.14;100.00;100350.88;4987494;28;20040;-79
2023/09/29 01:38:33;;;;;;;43.83;8.75;;;;;;;17.12;100.00;100358.81;5007202;28;20042;-79
2023/09/29 01:41:17;;;;;;;38.03;7.47;;;;;;;17.12;100.00;100358.81;4995950;28;20033;-79
2023/09/29 01:44:00;;;;;;;36.72;7.63;;;;;;;17.12;100.00;100356.81;5025313;28;20040;-79
2023/09/29 01:46:45;;;;;;;44.55;8.15;;;;;;;17.10;100.00;100359.13;5020794;28;20516;-80
2023/09/29 01:49:30;;;;;;;34.30;7.72;;;;;;;17.07;100.00;100371.06;5022327;28;20106;-79
2023/09/29 01:52:14;;;;;;;39.65;6.88;;;;;;;17.06;100.00;100372.22;5012494;28;20036;-79
2023/09/29 01:54:58;;;;;;;36.38;7.07;;;;;;;17.07;100.00;100368.25;5007941;28;20115;-79
2023/09/29 01:57:54;;;;;;;32.90;6.50;;;;;;;17.04;100.00;100366.13;5008511;28;20040;-79
2023/09/29 02:00:39;;;;;;;28.40;6.03;;;;;;;17.05;100.00;100383.78;5010140;28;20048;-79
2023/09/29 02:03:24;;;;;;;30.23;5.97;;;;;;;17.03;100.00;100389.75;5020180;28;20064;-79
2023/09/29 02:06:08;;;;;;;33.55;5.22;;;;;;;17.02;100.00;100399.34;5009133;28;20103;-79
2023/09/29 02:08:52;;;;;;;24.63;5.40;;;;;;;17.04;100.00;100399.78;5009492;28;20127;-79
2023/09/29 02:11:42;;;;;;;26.33;4.97;;;;;;;17.01;100.00;100403.28;5010282;28;20045;-79
2023/09/29 02:14:26;;;;;;;28.70;5.85;;;;;;;17.03;100.00;100411.38;5027103;28;20048;-80
2023/09/29 02:17:10;;;;;;;25.45;4.53;;;;;;;17.01;100.00;100422.09;5026086;28;20068;-79
2023/09/29 02:19:54;;;;;;;23.35;4.50;;;;;;;16.99;100.00;100411.22;5013153;28;20067;-79
2023/09/29 02:22:39;;;;;;;20.50;3.92;;;;;;;16.98;100.00;100416.00;5012163;28;20099;-79
2023/09/29 02:25:26;;;;;;;23.50;4.25;;;;;;;16.97;100.00;100430.38;5040748;28;20385;-79
2023/09/29 02:28:10;;;;;;;17.67;3.47;;;;;;;16.95;100.00;100424.28;5032396;28;20066;-79
2023/09/29 02:30:56;;;;;;;23.83;4.35;;;;;;;16.95;100.00;100425.09;5027062;28;20044;-80
2023/09/29 02:33:40;;;;;;;15.23;3.38;;;;;;;16.95;100.00;100432.69;5039513;28;20112;-79
2023/09/29 02:36:24;;;;;;;20.48;3.70;;;;;;;16.94;100.00;100442.28;5012145;28;20088;-79
2023/09/29 02:39:08;;;;;;;15.75;3.42;;;;;;;16.94;100.00;100445.09;5025786;28;20143;-80
2023/09/29 02:41:53;;;;;;;14.68;2.90;;;;;;;16.91;100.00;100435.38;4999737;28;20048;-80
2023/09/29 02:44:38;;;;;;;16.90;2.72;;;;;;;16.92;100.00;100441.78;5011721;28;20103;-79
2023/09/29 02:47:22;;;;;;;18.83;2.95;;;;;;;16.89;100.00;100440.47;5039836;28;20044;-80
2023/09/29 02:50:10;;;;;;;16.30;2.60;;;;;;;16.89;100.00;100456.50;5040436;28;20044;-79
2023/09/29 02:52:54;;;;;;;19.83;3.28;;;;;;;16.88;100.00;100457.63;5024696;28;20333;-79
2023/09/29 02:55:39;;;;;;;16.60;2.22;;;;;;;16.89;100.00;100467.72;5011861;28;20080;-79
2023/09/29 02:58:23;;;;;;;12.20;2.10;;;;;;;16.85;100.00;100464.75;5020174;28;20493;-79
2023/09/29 03:01:11;;;;;;;14.18;3.20;;;;;;;16.86;100.00;100472.03;5011438;28;20048;-79
2023/09/29 03:03:56;;;;;;;14.07;2.35;;;;;;;16.83;100.00;100483.91;5012417;28;20048;-79
2023/09/29 03:06:41;;;;;;;12.38;2.83;;;;;;;16.82;100.00;100489.84;5005893;28;20049;-80
2023/09/29 03:09:25;;;;;;;10.50;2.13;;;;;;;16.81;100.00;100503.06;5010065;28;20052;-79
2023/09/29 03:12:09;;;;;;;16.02;2.45;;;;;;;16.81;100.00;100499.44;5019442;28;20093;-79
2023/09/29 03:14:53;;;;;;;11.85;2.47;;;;;;;16.83;100.00;100519.56;4980637;28;20498;-79
2023/09/29 03:17:37;;;;;;;12.18;2.05;;;;;;;16.80;100.00;100520.19;4991903;28;20095;-79
2023/09/29 03:20:21;;;;;;;15.23;2.42;;;;;;;16.80;100.00;100534.22;5018991;28;20084;-80
2023/09/29 03:23:06;;;;;;;13.40;2.40;;;;;;;16.80;100.00;100546.28;5025567;28;20125;-79
2023/09/29 03:25:50;;;;;;;8.75;2.05;;;;;;;16.79;100.00;100553.03;5024614;28;20508;-80
2023/09/29 03:28:35;;;;;;;13.57;2.28;;;;;;;16.78;100.00;100556.19;4997610;28;20116;-79
2023/09/29 03:31:19;;;;;;;9.15;1.92;;;;;;;16.78;100.00;100559.81;5010442;28;20048;-79
2023/09/29 03:34:03;;;;;;;9.07;2.72;;;;;;;16.75;100.00;100566.88;5026360;28;20041;-80
2023/09/29 03:36:50;;;;;;;8.10;1.55;;;;;;;16.78;100.00;100585.06;5024766;28;20040;-79
2023/09/29 03:39:34;;;;;;;8.07;2.08;;;;;;;16.77;100.00;100560.13;5024456;28;20037;-79
2023/09/29 03:42:20;;;;;;;7.53;1.73;;;;;;;16.74;100.00;100589.63;5013319;28;20092;-79
2023/09/29 03:45:06;;;;;;;7.63;1.77;;;;;;;16.75;100.00;100597.72;5024421;28;20072;-80
2023/09/29 03:47:51;;;;;;;9.10;1.98;;;;;;;16.75;100.00;100608.94;5024041;28;20040;-79
2023/09/29 03:50:35;;;;;;;8.15;1.85;;;;;;;16.73;100.00;100605.66;5024235;28;20083;-79
2023/09/29 03:53:19;;;;;;;11.07;1.60;;;;;;;16.72;100.00;100604.00;4988090;28;20107;-79
2023/09/29 03:56:03;;;;;;;7.40;1.67;;;;;;;16.70;100.00;100613.91;5037830;28;20101;-79
2023/09/29 03:58:48;;;;;;;9.15;2.13;;;;;;;16.68;100.00;100628.25;5023839;28;20129;-80
2023/09/29 04:01:32;;;;;;;9.75;2.00;;;;;;;16.68;100.00;100639.47;4997606;28;20048;-79
2023/09/29 04:04:16;;;;;;;8.63;1.60;;;;;;;16.65;100.00;100628.91;5011580;28;20044;-79
2023/09/29 04:07:00;;;;;;;8.02;1.25;;;;;;;16.67;100.00;100634.22;5023661;28;20133;-79
2023/09/29 04:09:45;;;;;;;7.03;1.80;;;;;;;16.65;100.00;100636.50;4998857;28;20035;-79
2023/09/29 04:12:29;;;;;;;8.32;1.60;;;;;;;16.60;100.00;100637.50;5032706;28;20075;-79
2023/09/29 04:15:13;;;;;;;5.68;1.50;;;;;;;16.61;100.00;100646.75;5030901;28;20637;-79
2023/09/29 04:17:57;;;;;;;6.25;1.73;;;;;;;16.58;100.00;100641.81;5011423;28;20040;-79
2023/09/29 04:20:42;;;;;;;7.45;1.58;;;;;;;16.55;100.00;100648.91;5026485;28;20178;-80
2023/09/29 04:23:26;;;;;;;4.82;1.45;;;;;;;16.57;100.00;100652.19;5044083;28;20102;-79
2023/09/29 04:26:18;;;;;;;6.75;1.60;;;;;;;16.52;100.00;100667.22;5018023;28;20054;-79
2023/09/29 04:29:03;;;;;;;7.43;1.63;;;;;;;16.52;100.00;100677.59;5030858;28;20123;-80
2023/09/29 04:31:46;;;;;;;7.55;1.50;;;;;;;16.49;100.00;100678.25;5058907;28;20036;-79
2023/09/29 04:34:30;;;;;;;6.22;1.55;;;;;;;16.44;100.00;100689.66;5033598;28;20400;-79
2023/09/29 04:37:14;;;;;;;6.10;1.63;;;;;;;16.43;100.00;100690.78;5028995;28;20512;-79
2023/09/29 04:39:58;;;;;;;4.60;1.25;;;;;;;16.36;100.00;100694.09;5056769;28;20039;-80
2023/09/29 04:42:42;;;;;;;4.82;1.40;;;;;;;16.38;100.00;100696.53;5039134;28;20389;-79
2023/09/29 04:45:26;;;;;;;4.72;1.23;;;;;;;16.37;100.00;100704.13;5029559;28;20126;-79
2023/09/29 04:48:11;;;;;;;5.38;1.08;;;;;;;16.34;100.00;100712.38;5056751;28;20553;-79
2023/09/29 04:50:55;;;;;;;5.57;0.95;;;;;;;16.30;100.00;100710.22;5029146;28;20067;-79
2023/09/29 04:53:39;;;;;;;6.75;1.15;;;;;;;16.28;100.00;100714.53;5023053;28;20507;-79
2023/09/29 04:56:23;;;;;;;3.40;0.95;;;;;;;16.26;100.00;100726.03;5042699;28;20150;-80
2023/09/29 04:59:08;;;;;;;5.70;1.35;;;;;;;16.27;100.00;100732.50;5035584;28;20048;-79
2023/09/29 05:01:53;;;;;;;4.38;1.08;;;;;;;16.24;100.00;100739.56;5032240;28;20381;-79
2023/09/29 05:04:39;;;;;;;3.30;1.10;;;;;;;16.24;100.00;100744.34;5029669;28;20127;-79
2023/09/29 05:07:23;;;;;;;3.63;1.10;;;;;;;16.21;100.00;100750.59;5042909;28;20062;-80
2023/09/29 05:10:07;;;;;;;5.07;1.23;;;;;;;16.18;100.00;100751.25;5057166;28;20095;-80
2023/09/29 05:12:51;;;;;;;3.88;1.20;;;;;;;16.17;100.00;100758.84;5037045;28;20136;-79
2023/09/29 05:15:36;;;;;;;2.97;1.05;;;;;;;16.16;100.00;100771.19;5008598;28;20048;-80
2023/09/29 05:18:23;;;;;;;5.53;1.15;;;;;;;16.16;100.00;100776.81;5022304;28;20137;-79
2023/09/29 05:21:07;;;;;;;5.45;1.10;;;;;;;16.14;100.00;100776.28;5022624;28;20115;-79
2023/09/29 05:23:51;;;;;;;3.55;0.60;;;;;;;16.14;100.00;100775.47;5008390;28;20464;-79
2023/09/29 05:26:35;;;;;;;4.22;1.10;;;;;;;16.13;100.00;100773.81;5022856;28;20068;-80
2023/09/29 05:29:19;;;;;;;3.20;1.20;;;;;;;16.14;100.00;100779.09;4992223;28;20072;-79
2023/09/29 05:32:03;;;;;;;2.80;0.77;;;;;;;16.13;100.00;100787.81;5008547;28;20064;-79
2023/09/29 05:34:47;;;;;;;3.53;0.90;;;;;;;16.11;100.00;100788.16;4989368;28;20041;-79
2023/09/29 05:37:32;;;;;;;5.05;1.00;;;;;;;16.10;100.00;100786.50;5008697;28;20048;-80
2023/09/29 05:40:16;;;;;;;3.28;0.73;;;;;;;16.12;100.00;100798.19;5022742;28;20040;-79
2023/09/29 05:43:00;;;;;;;2.88;0.75;;;;;;;16.13;100.00;100801.81;5021893;28;20060;-79
2023/09/29 05:45:44;;;;;;;2.72;0.90;;;;;;;16.10;100.00;100806.09;5008230;28;20425;-79
2023/09/29 05:48:29;;;;;;;6.38;0.98;;;;;;;16.09;100.00;100805.28;5007791;28;20048;-79
2023/09/29 05:51:13;;;;;;;2.95;0.80;;;;;;;16.13;100.00;100816.69;4992943;28;20053;-79
2023/09/29 05:53:58;;;;;;;5.63;1.20;;;;;;;16.11;100.00;100823.75;4994489;28;20104;-79
2023/09/29 05:56:42;;;;;;;4.25;1.00;;;;;;;16.10;100.00;100834.13;5022845;28;20068;-79
2023/09/29 05:59:26;;;;;;;4.50;1.15;;;;;;;16.11;100.00;100835.78;5007729;28;20076;-79
2023/09/29 06:02:10;;;;;;;8.23;1.30;;;;;;;16.12;100.00;100837.44;5007814;28;20068;-79
2023/09/29 06:04:54;;;;;;;3.17;0.98;;;;;;;16.09;100.00;100850.09;4995072;28;20044;-79
2023/09/29 06:07:39;;;;;;;2.88;0.90;;;;;;;16.09;100.00;100849.28;5017979;28;20036;-79
2023/09/29 06:10:24;;;;;;;3.55;1.13;;;;;;;16.09;100.00;100860.50;5007424;28;20110;-75
2023/09/29 06:13:09;;;;;;;3.72;0.63;;;;;;;16.07;100.00;100858.03;5000280;28;20138;-79
2023/09/29 06:15:55;;;;;;;4.45;1.10;;;;;;;16.09;100.00;100860.50;5018698;28;20049;-79
2023/09/29 06:18:40;;;;;;;4.53;1.00;;;;;;;16.09;100.00;100854.88;5021583;28;20099;-79
2023/09/29 06:21:24;;;;;;;3.55;0.98;;;;;;;16.07;100.00;100862.78;5024441;28;20139;-79
2023/09/29 06:24:08;;;;;;;3.28;1.17;;;;;;;16.08;100.00;100870.06;5033162;28;20064;-79
2023/09/29 06:26:52;;;;;;;4.50;0.90;;;;;;;16.07;100.00;100874.00;5021673;28;20441;-79
2023/09/29 06:29:36;;;;;;;4.63;1.02;;;;;;;16.06;100.00;100878.78;5021366;28;20488;-79
2023/09/29 06:32:20;;;;;;;5.18;0.80;;;;;;;16.07;100.00;100883.25;5023027;28;20040;-79
2023/09/29 06:35:05;;;;;;;4.75;1.10;;;;;;;16.06;100.00;100883.56;5025410;28;20100;-79
2023/09/29 06:37:51;;;;;;;4.00;0.85;;;;;;;16.06;100.00;100889.16;5026686;28;20040;-79
2023/09/29 06:40:35;;;;;;;3.40;1.02;;;;;;;16.07;100.00;100897.25;5021312;28;20052;-79
2023/09/29 06:43:19;;;;;;;3.85;0.90;;;;;;;16.07;100.00;100896.41;5021429;28;20107;-79
2023/09/29 06:46:03;;;;;;;4.80;1.02;;;;;;;16.08;100.00;100900.88;5021316;28;20040;-79
2023/09/29 06:48:47;;;;;;;5.20;1.02;;;;;;;16.07;100.00;100905.66;4996148;28;20448;-80
2023/09/29 06:51:32;;;;;;;3.92;0.93;;;;;;;16.08;100.00;100910.09;5035801;28;20036;-79
2023/09/29 06:54:16;;;;;;;4.32;0.95;;;;;;;16.09;100.00;100917.34;5007389;28;20148;-80
2023/09/29 06:57:00;;;;;;;3.42;0.80;;;;;;;16.10;100.00;100909.75;5021182;28;20044;-79
2023/09/29 06:59:44;;;;;;;3.03;0.70;;;;;;;16.14;100.00;100923.97;5008008;28;20124;-80
2023/09/29 07:02:28;;;;;;;4.50;1.13;;;;;;;16.13;100.00;100928.75;5005553;28;20144;-79
2023/09/29 07:05:13;;;;;;;6.05;1.30;;;;;;;16.15;100.00;100929.25;5018489;28;20084;-80
2023/09/29 07:07:57;;;;;;;4.68;1.40;;;;;;;16.17;100.00;100935.34;4990096;28;20485;-80
2023/09/29 07:10:45;;;;;;;4.80;1.70;;;;;;;16.19;100.00;100940.66;5005362;28;20053;-80
2023/09/29 07:13:30;;;;;;;7.25;1.77;;;;;;;16.20;100.00;100950.69;5058457;28;20059;-80
2023/09/29 07:16:17;;;;;;;6.65;1.55;;;;;;;16.19;100.00;100966.69;5002059;28;20115;-80
2023/09/29 07:19:03;;;;;;;4.35;1.30;;;;;;;16.21;100.00;100974.75;5042907;28;20075;-80
2023/09/29 07:21:47;;;;;;;6.13;1.63;;;;;;;16.22;100.00;100977.25;5055835;28;20035;-79
2023/09/29 07:24:31;;;;;;;5.82;1.60;;;;;;;16.25;100.00;100979.41;5010311;28;20076;-79
2023/09/29 07:27:16;;;;;;;7.55;2.00;;;;;;;16.26;100.00;100983.88;5057393;28;20047;-79
2023/09/29 07:30:01;;;;;;;6.15;1.98;;;;;;;16.29;100.00;100993.59;5043087;28;20091;-79
2023/09/29 07:32:45;;;;;;;5.75;1.40;;;;;;;16.32;100.00;100998.56;5041371;28;20074;-80
2023/09/29 07:35:29;;;;;;;6.78;1.73;;;;;;;16.35;100.00;101003.53;5039308;28;20571;-80
2023/09/29 07:38:13;;;;;;;8.85;1.95;;;;;;;16.37;100.00;101003.22;5029137;28;20111;-80
2023/09/29 07:40:59;;;;;;;6.43;1.95;;;;;;;16.39;100.00;101015.78;5035464;28;20102;-80
2023/09/29 07:43:43;;;;;;;10.23;2.15;;;;;;;16.43;100.00;101018.75;5009829;28;20096;-80
2023/09/29 07:46:29;;;;;;;7.57;1.98;;;;;;;16.45;100.00;101013.66;5038594;28;20558;-79
2023/09/29 07:49:14;;;;;;;9.23;1.90;;;;;;;16.47;100.00;101028.19;5031066;28;20098;-80
2023/09/29 07:51:58;;;;;;;6.63;1.58;;;;;;;16.51;100.00;101017.97;5046241;28;20040;-80
2023/09/29 07:54:42;;;;;;;5.60;2.13;;;;;;;16.57;100.00;101027.06;5041258;28;20121;-80
2023/09/29 07:57:26;;;;;;;7.80;2.15;;;;;;;16.61;100.00;101016.88;5028149;28;20047;-80
2023/09/29 08:00:15;;;;;;;7.07;1.83;;;;;;;16.65;100.00;101018.69;5022385;28;20080;-80
2023/09/29 08:02:59;;;;;;;6.30;1.73;;;;;;;16.72;100.00;101027.50;5016179;28;20043;-80
2023/09/29 08:05:43;;;;;;;7.50;1.73;;;;;;;16.77;100.00;101029.38;5042105;28;20469;-80
2023/09/29 08:08:28;;;;;;;8.00;1.90;;;;;;;16.82;100.00;101028.38;4998361;28;20041;-80
2023/09/29 08:11:12;;;;;;;5.60;2.05;;;;;;;16.90;100.00;101041.63;5040487;28;20404;-80
2023/09/29 08:13:56;;;;;;;8.38;1.95;;;;;;;16.99;100.00;101042.47;4989134;28;20053;-80
2023/09/29 08:16:40;;;;;;;6.15;1.88;;;;;;;17.06;100.00;101045.63;5009340;28;20055;-80
2023/09/29 08:19:25;;;;;;;10.63;2.10;;;;;;;17.12;100.00;101049.94;5023086;28;20389;-80
2023/09/29 08:22:09;;;;;;;7.22;1.80;;;;;;;17.23;100.00;101055.25;5009331;28;20107;-80
2023/09/29 08:24:53;;;;;;;7.63;1.92;;;;;;;17.27;100.00;101054.25;5009351;28;20040;-80
2023/09/29 08:27:37;;;;;;;6.82;1.60;;;;;;;17.38;100.00;101063.22;4997482;28;20096;-80
2023/09/29 08:30:22;;;;;;;7.80;1.80;;;;;;;17.43;100.00;101057.44;5006293;28;20044;-80
2023/09/29 08:33:06;;;;;;;7.25;1.80;;;;;;;17.54;100.00;101067.22;5003237;28;20052;-80
2023/09/29 08:35:50;;;;;;;7.70;1.75;;;;;;;17.63;100.00;101062.47;5011335;28;20045;-80
2023/09/29 08:38:34;;;;;;;8.70;1.90;;;;;;;17.72;100.00;101067.22;5022562;28;20052;-80
2023/09/29 08:41:27;;;;;;;7.60;1.77;;;;;;;17.80;100.00;101063.63;5010479;28;20037;-80
2023/09/29 08:44:11;;;;;;;7.68;2.13;;;;;;;17.90;100.00;101074.56;5020423;28;20076;-80
2023/09/29 08:47:00;;;;;;;5.00;1.77;;;;;;;17.98;100.00;101072.91;5009236;28;20396;-80
2023/09/29 08:49:46;;;;;;;7.78;1.70;;;;;;;18.06;100.00;101075.72;5008471;28;20040;-80
2023/09/29 08:52:31;;;;;;;4.85;1.20;;;;;;;18.15;100.00;101103.00;4989564;28;20045;-80
2023/09/29 08:55:16;;;;;;;10.20;2.60;;;;;;;18.15;100.00;101103.81;5002746;28;20476;-79
2023/09/29 08:58:01;;;;;;;10.73;2.28;;;;;;;18.14;100.00;101101.38;5007201;28;20180;-80
2023/09/29 09:00:45;;;;;;;11.77;3.15;;;;;;;18.06;100.00;101114.25;5008479;28;20049;-80
2023/09/29 09:03:29;;;;;;;12.85;3.28;;;;;;;17.92;100.00;101114.41;5022413;28;20044;-80
2023/09/29 09:06:25;;;;;;;14.93;3.83;;;;;;;17.84;100.00;101112.41;4991772;28;20125;-80
2023/09/29 09:09:09;;;;;;;17.30;4.07;;;;;;;17.66;100.00;101122.75;5008062;28;20045;-80
2023/09/29 09:11:53;;;;;;;13.98;4.43;;;;;;;17.61;100.00;101118.13;5031524;28;20100;-80
2023/09/29 09:14:41;;;;;;;12.95;3.65;;;;;;;17.56;100.00;101115.47;5008259;28;20044;-80
2023/09/29 09:17:25;;;;;;;16.17;4.85;;;;;;;17.47;100.00;101123.06;5010845;28;20056;-80
2023/09/29 09:20:10;;;;;;;14.90;4.85;;;;;;;17.46;100.00;101129.81;4994633;28;20052;-80
2023/09/29 09:23:01;;;;;;;13.48;4.72;;;;;;;17.43;100.00;101122.84;5009619;28;20040;-78
2023/09/29 09:25:46;;;;;;;21.70;5.10;;;;;;;17.43;100.00;101127.66;5021878;28;20048;-79
2023/09/29 09:28:31;;;;;;;15.80;5.18;;;;;;;17.39;100.00;101132.28;5019557;28;20496;-79
2023/09/29 09:31:15;;;;;;;19.33;5.40;;;;;;;17.41;100.00;101132.75;4992093;28;20111;-79
2023/09/29 09:33:59;;;;;;;18.80;5.03;;;;;;;17.42;100.00;101140.03;5006852;28;20076;-79
2023/09/29 09:36:46;;;;;;;22.25;5.93;;;;;;;17.45;100.00;101149.78;5009524;28;20115;-80
2023/09/29 09:39:30;;;;;;;16.75;5.50;;;;;;;17.47;100.00;101151.13;5008276;28;20095;-80
2023/09/29 09:42:14;;;;;;;15.23;5.47;;;;;;;17.52;100.00;101148.16;5023290;28;20037;-80
2023/09/29 09:44:58;;;;;;;19.05;5.63;;;;;;;17.57;100.00;101158.41;5021739;28;20048;-79
2023/09/29 09:47:42;;;;;;;17.55;6.03;;;;;;;17.63;100.00;101154.28;5021878;28;20084;-79
2023/09/29 09:50:28;;;;;;;19.92;5.78;;;;;;;17.64;100.00;101161.59;4981196;28;20106;-79
2023/09/29 09:53:13;;;;;;;16.50;5.50;;;;;;;17.70;100.00;101165.91;4993251;28;20540;-79
2023/09/29 09:56:06;;;;;;;21.05;5.45;;;;;;;17.75;100.00;101167.72;5001783;28;20040;-79
2023/09/29 09:58:53;;;;;;;16.67;5.07;;;;;;;17.82;100.00;101173.72;5001496;28;20045;-79
2023/09/29 10:01:39;;;;;;;17.55;5.72;;;;;;;17.93;100.00;101183.50;4976113;28;20033;-79
2023/09/29 10:04:28;;;;;;;18.10;5.43;;;;;;;18.06;100.00;101190.13;5004614;28;20111;-79
2023/09/29 10:07:14;;;;;;;16.02;5.30;;;;;;;18.20;100.00;101196.44;5007719;28;20040;-79
2023/09/29 10:10:00;;;;;;;15.40;5.30;;;;;;;18.31;100.00;101200.56;5007186;28;20555;-79
2023/09/29 10:12:45;;;;;;;21.10;5.68;;;;;;;18.41;100.00;101196.59;4999882;28;20124;-79
2023/09/29 10:15:29;;;;;;;14.27;4.78;;;;;;;18.54;100.00;101209.66;5005876;28;20088;-79
2023/09/29 10:18:14;;;;;;;18.40;5.38;;;;;;;18.65;100.00;101212.16;5017699;28;20072;-79
2023/09/29 10:21:08;;;;;;;16.25;5.07;;;;;;;18.76;100.00;101216.31;5036118;28;20056;-79
2023/09/29 10:23:52;;;;;;;;;;;;;;;18.87;100.00;101222.44;5031467;28;20169;-79
2023/09/29 10:26:51;;;;;;;18.88;6.15;;;;;;;18.97;100.00;101230.50;5004398;28;20012;-79
2023/09/29 10:29:37;;;;;;;15.38;5.15;;;;;;;19.08;100.00;101214.09;5019799;28;20084;-79
2023/09/29 10:32:22;;;;;;;17.38;5.85;;;;;;;19.19;100.00;101212.59;5021391;28;20360;-79
2023/09/29 10:35:11;;;;;;;22.00;6.63;;;;;;;19.32;100.00;101213.56;5024187;28;20080;-79
2023/09/29 10:37:56;;;;;;;15.95;5.43;;;;;;;19.46;100.00;101219.78;5012490;28;20052;-79
2023/09/29 10:40:41;;;;;;;16.40;5.95;;;;;;;19.64;100.00;101229.03;5001564;28;20068;-80
2023/09/29 10:43:26;;;;;;;17.52;5.85;;;;;;;19.75;100.00;101235.13;4997586;28;20567;-79
2023/09/29 10:46:10;;;;;;;20.63;6.00;;;;;;;19.89;100.00;101240.50;5024818;28;20437;-79
2023/09/29 10:48:55;;;;;;;15.90;5.75;;;;;;;19.97;100.00;101245.28;5024245;28;20131;-79
2023/09/29 10:51:39;;;;;;;23.10;6.82;;;;;;;20.05;100.00;101252.88;5011357;28;20056;-79
2023/09/29 10:54:24;;;;;;;18.73;6.97;;;;;;;20.07;100.00;101254.19;5025081;28;20118;-79
2023/09/29 10:57:09;;;;;;;16.30;5.95;;;;;;;20.15;100.00;101258.13;5011046;28;20040;-79
2023/09/29 10:59:59;;;;;;;17.88;6.95;;;;;;;20.19;100.00;101259.06;5022879;28;20401;-79
2023/09/29 11:02:45;;;;;;;19.98;6.93;;;;;;;20.17;100.00;101263.41;4999675;28;20040;-79
2023/09/29 11:05:29;;;;;;;20.38;6.60;;;;;;;20.17;100.00;101267.06;5005367;28;20040;-79
2023/09/29 11:08:13;;;;;;;20.13;6.43;;;;;;;20.17;100.00;101269.91;5024617;28;20075;-79
2023/09/29 11:11:04;;;;;;;15.82;6.28;;;;;;;20.15;100.00;101262.94;5037231;28;20041;-80
2023/09/29 11:13:58;;;;;;;19.63;6.53;;;;;;;20.07;100.00;101259.00;5017298;28;20516;-80
2023/09/29 11:16:42;;;;;;;18.08;6.40;;;;;;;20.17;100.00;101258.63;5028271;28;20389;-79
2023/09/29 11:19:30;;;;;;;21.08;6.68;;;;;;;20.23;100.00;101268.53;5038174;28;20064;-79
2023/09/29 11:22:18;;;;;;;19.45;7.07;;;;;;;20.28;100.00;101270.31;5025139;28;20067;-79
2023/09/29 11:25:03;;;;;;;20.17;7.20;;;;;;;20.40;100.00;101266.75;5038512;28;20559;-77
2023/09/29 11:27:51;;;;;;;19.48;7.20;;;;;;;20.48;100.00;101260.25;4998932;28;20071;-77
2023/09/29 11:30:34;;;;;;;21.25;7.63;;;;;;;20.57;100.00;101257.38;5022716;28;20128;-77
2023/09/29 11:33:19;;;;;;;19.05;7.13;;;;;;;20.69;100.00;101255.44;5022570;28;20095;-77
2023/09/29 11:36:21;;;;;;;20.58;7.50;;;;;;;20.79;100.00;101259.03;5016359;28;20060;-77
2023/09/29 11:39:07;;;;;;;19.80;6.68;;;;;;;20.84;100.00;101261.59;4998999;28;20047;-77
2023/09/29 11:41:51;;;;;;;19.90;7.45;;;;;;;20.94;100.00;101253.53;5010703;28;20040;-77
2023/09/29 11:44:35;;;;;;;18.58;7.03;;;;;;;21.02;100.00;101246.16;5023234;28;20056;-77
2023/09/29 11:47:20;;;;;;;21.13;7.65;;;;;;;21.06;100.00;101249.97;5024012;28;20080;-77
2023/09/29 11:50:05;;;;;;;21.52;7.47;;;;;;;21.12;100.00;101248.56;5009450;28;20524;-77
2023/09/29 11:52:49;;;;;;;21.23;7.47;;;;;;;21.21;100.00;101242.81;5009923;28;20029;-77
2023/09/29 11:55:38;;;;;;;18.73;7.53;;;;;;;21.29;100.00;101244.72;5023063;28;20144;-77
2023/09/29 11:58:25;;;;;;;19.08;7.57;;;;;;;21.36;100.00;101259.09;5003211;28;20467;-77
2023/09/29 12:01:10;;;;;;;21.88;7.90;;;;;;;21.36;100.00;101261.09;5043008;28;20094;-77
2023/09/29 12:03:55;;;;;;;20.67;7.32;;;;;;;21.38;100.00;101259.63;5029510;28;20063;-77
2023/09/29 12:06:39;;;;;;;22.38;7.63;;;;;;;21.39;100.00;101261.25;5028777;28;20044;-77
2023/09/29 12:09:23;;;;;;;18.38;7.13;;;;;;;21.34;100.00;101260.63;5041691;28;20389;-77
2023/09/29 12:12:07;;;;;;;19.38;7.07;;;;;;;21.30;100.00;101262.50;5028668;28;20083;-77
2023/09/29 12:14:53;;;;;;;19.27;6.80;;;;;;;21.31;100.00;101261.31;5017458;28;20401;-77
2023/09/29 12:17:37;;;;;;;24.50;7.75;;;;;;;21.29;100.00;101258.84;5018277;28;20091;-77
2023/09/29 12:20:21;;;;;;;21.63;7.40;;;;;;;21.31;100.00;101259.34;5030453;28;20128;-77
2023/09/29 12:23:08;;;;;;;20.45;6.35;;;;;;;21.36;100.00;101261.09;5028693;28;20094;-77
2023/09/29 12:25:52;;;;;;;16.08;6.38;;;;;;;21.46;100.00;101257.88;5030308;28;20110;-77
2023/09/29 12:28:36;;;;;;;17.02;6.03;;;;;;;21.51;100.00;101262.47;5026895;28;20075;-77
2023/09/29 12:31:21;;;;;;;18.02;6.93;;;;;;;21.57;100.00;101263.91;5019620;28;20064;-77
2023/09/29 12:34:05;;;;;;;20.95;7.28;;;;;;;21.64;100.00;101261.31;5034940;28;20039;-77